createdAt,value
2018-07-23T00:00:36.460Z,977.26
2018-07-23T00:01:46.309Z,977.3
2018-07-23T00:02:56.388Z,977.3
2018-07-23T00:04:06.466Z,977.32
2018-07-23T00:05:16.000Z,977.34
2018-07-23T00:06:26.083Z,977.36
2018-07-23T00:07:35.667Z,977.34
2018-07-23T00:08:45.460Z,977.33
2018-07-23T00:09:55.005Z,977.29
2018-07-23T00:11:04.542Z,977.34
2018-07-23T00:12:14.607Z,977.36
2018-07-23T00:13:24.458Z,977.39
2018-07-23T00:14:33.975Z,977.41
2018-07-23T00:15:43.219Z,977.38
2018-07-23T00:16:53.007Z,977.39
2018-07-23T00:18:02.822Z,977.44
2018-07-23T00:19:12.945Z,977.45
2018-07-23T00:20:23.017Z,977.47
2018-07-23T00:21:33.074Z,977.45
2018-07-23T00:22:42.880Z,977.49
2018-07-23T00:23:52.693Z,977.5
2018-07-23T00:25:02.260Z,977.46
2018-07-23T00:26:12.349Z,977.49
2018-07-23T00:27:22.422Z,977.48
2018-07-23T00:28:31.958Z,977.5
2018-07-23T00:29:42.030Z,977.51
2018-07-23T00:30:52.141Z,977.51
2018-07-23T00:32:01.938Z,977.49
2018-07-23T00:33:11.729Z,977.51
2018-07-23T00:34:21.520Z,977.52
2018-07-23T00:35:31.321Z,977.53
2018-07-23T00:36:40.903Z,977.54
2018-07-23T00:37:50.969Z,977.56
2018-07-23T00:39:01.040Z,977.56
2018-07-23T00:40:10.845Z,977.57
2018-07-23T00:41:20.376Z,977.64
2018-07-23T00:42:30.493Z,977.69
2018-07-23T00:43:40.021Z,977.68
2018-07-23T00:44:50.125Z,977.62
2018-07-23T00:46:00.185Z,977.62
2018-07-23T00:47:09.455Z,977.63
2018-07-23T00:48:19.302Z,977.61
2018-07-23T00:49:29.382Z,977.6
2018-07-23T00:50:39.165Z,977.59
2018-07-23T00:51:49.259Z,977.61
2018-07-23T00:52:59.079Z,977.6
2018-07-23T00:54:08.939Z,977.62
2018-07-23T00:55:19.001Z,977.59
2018-07-23T00:56:29.060Z,977.57
2018-07-23T00:57:38.323Z,977.58
2018-07-23T00:58:47.862Z,977.57
2018-07-23T00:59:57.447Z,977.57
2018-07-23T01:01:07.248Z,977.54
2018-07-23T01:02:17.326Z,977.59
2018-07-23T01:03:26.863Z,977.62
2018-07-23T01:04:36.673Z,977.63
2018-07-23T01:05:46.509Z,977.62
2018-07-23T01:06:56.566Z,977.66
2018-07-23T01:08:06.665Z,977.65
2018-07-23T01:09:16.732Z,977.66
2018-07-23T01:10:26.787Z,977.63
2018-07-23T01:11:36.359Z,977.71
2018-07-23T01:12:46.426Z,977.68
2018-07-23T01:13:56.501Z,977.68
2018-07-23T01:15:06.610Z,977.7
2018-07-23T01:16:16.669Z,977.68
2018-07-23T01:17:26.799Z,977.72
2018-07-23T01:18:36.338Z,977.69
2018-07-23T01:19:46.410Z,977.71
2018-07-23T01:20:55.929Z,977.68
2018-07-23T01:22:05.990Z,977.7
2018-07-23T01:23:15.850Z,977.71
2018-07-23T01:24:25.907Z,977.72
2018-07-23T01:25:35.702Z,977.74
2018-07-23T01:26:45.760Z,977.7
2018-07-23T01:27:55.289Z,977.68
2018-07-23T01:29:05.416Z,977.7
2018-07-23T01:30:15.478Z,977.65
2018-07-23T01:31:25.530Z,977.68
2018-07-23T01:32:35.328Z,977.69
2018-07-23T01:33:45.131Z,977.66
2018-07-23T01:34:55.251Z,977.67
2018-07-23T01:36:04.771Z,977.68
2018-07-23T01:37:14.847Z,977.7
2018-07-23T01:38:24.939Z,977.69
2018-07-23T01:39:35.018Z,977.67
2018-07-23T01:40:44.338Z,977.73
2018-07-23T01:41:54.393Z,977.71
2018-07-23T01:43:04.185Z,977.74
2018-07-23T01:44:14.254Z,977.7
2018-07-23T01:45:24.321Z,977.69
2018-07-23T01:46:34.452Z,977.73
2018-07-23T01:47:44.257Z,977.74
2018-07-23T01:48:53.781Z,977.73
2018-07-23T01:50:03.860Z,977.73
2018-07-23T01:51:13.642Z,977.8
2018-07-23T01:52:23.513Z,977.79
2018-07-23T01:53:33.592Z,977.79
2018-07-23T01:54:43.107Z,977.79
2018-07-23T01:55:53.189Z,977.77
2018-07-23T01:57:03.259Z,977.77
2018-07-23T01:58:13.115Z,977.78
2018-07-23T01:59:22.922Z,977.77
2018-07-23T02:00:32.748Z,977.78
2018-07-23T02:01:42.827Z,977.77
2018-07-23T02:02:52.076Z,977.74
2018-07-23T02:04:02.631Z,977.77
2018-07-23T02:05:12.698Z,977.73
2018-07-23T02:06:22.775Z,977.74
2018-07-23T02:07:32.851Z,977.75
2018-07-23T02:08:42.917Z,977.73
2018-07-23T02:09:53.026Z,977.79
2018-07-23T02:11:02.814Z,977.83
2018-07-23T02:12:12.079Z,977.82
2018-07-23T02:13:22.166Z,977.83
2018-07-23T02:14:31.968Z,977.82
2018-07-23T02:15:41.811Z,977.86
2018-07-23T02:16:51.872Z,977.88
2018-07-23T02:18:01.687Z,977.87
2018-07-23T02:19:11.572Z,977.88
2018-07-23T02:20:21.662Z,977.9
2018-07-23T02:21:31.518Z,977.91
2018-07-23T02:22:41.328Z,977.9
2018-07-23T02:23:51.381Z,977.89
2018-07-23T02:25:01.186Z,977.92
2018-07-23T02:26:10.702Z,977.93
2018-07-23T02:27:20.543Z,977.94
2018-07-23T02:28:30.604Z,977.95
2018-07-23T02:29:40.663Z,977.93
2018-07-23T02:30:50.457Z,977.93
2018-07-23T02:32:00.547Z,977.94
2018-07-23T02:33:10.137Z,977.94
2018-07-23T02:34:19.678Z,977.95
2018-07-23T02:35:29.469Z,977.96
2018-07-23T02:36:39.015Z,977.94
2018-07-23T02:37:48.824Z,977.97
2018-07-23T02:38:58.937Z,977.97
2018-07-23T02:40:08.731Z,977.94
2018-07-23T02:41:18.540Z,977.98
2018-07-23T02:42:28.085Z,977.98
2018-07-23T02:43:37.896Z,978.01
2018-07-23T02:44:47.758Z,978.01
2018-07-23T02:45:57.825Z,977.99
2018-07-23T02:47:07.602Z,977.99
2018-07-23T02:48:17.422Z,978.05
2018-07-23T02:49:26.958Z,978.02
2018-07-23T02:50:36.817Z,978.05
2018-07-23T02:51:46.090Z,978.04
2018-07-23T02:52:55.886Z,978.05
2018-07-23T02:54:05.707Z,978.07
2018-07-23T02:55:15.787Z,978.11
2018-07-23T02:56:25.906Z,978.16
2018-07-23T02:57:35.715Z,978.18
2018-07-23T02:58:44.983Z,978.14
2018-07-23T02:59:54.789Z,978.18
2018-07-23T03:03:38.668Z,978.17
2018-07-23T03:04:48.724Z,978.19
2018-07-23T03:05:58.804Z,978.22
2018-07-23T03:07:08.345Z,978.18
2018-07-23T03:08:18.414Z,978.18
2018-07-23T03:09:28.002Z,978.21
2018-07-23T03:10:38.073Z,978.19
2018-07-23T03:11:47.599Z,978.24
2018-07-23T03:12:57.659Z,978.2
2018-07-23T03:14:07.754Z,978.21
2018-07-23T03:15:17.614Z,978.25
2018-07-23T03:16:27.698Z,978.23
2018-07-23T03:17:37.759Z,978.23
2018-07-23T03:18:47.561Z,978.25
2018-07-23T03:19:57.364Z,978.25
2018-07-23T03:21:06.666Z,978.21
2018-07-23T03:22:16.728Z,978.24
2018-07-23T03:23:26.813Z,978.23
2018-07-23T03:24:36.897Z,978.2
2018-07-23T03:25:46.985Z,978.25
2018-07-23T03:26:57.145Z,978.27
2018-07-23T03:28:06.674Z,978.26
2018-07-23T03:29:16.197Z,978.25
2018-07-23T03:30:26.269Z,978.33
2018-07-23T03:31:36.095Z,978.31
2018-07-23T03:32:46.229Z,978.32
2018-07-23T03:33:56.055Z,978.32
2018-07-23T03:35:05.856Z,978.34
2018-07-23T03:36:15.920Z,978.37
2018-07-23T03:37:25.727Z,978.41
2018-07-23T03:38:35.861Z,978.41
2018-07-23T03:39:45.644Z,978.4
2018-07-23T03:40:55.162Z,978.39
2018-07-23T03:42:04.957Z,978.39
2018-07-23T03:43:14.747Z,978.38
2018-07-23T03:44:24.667Z,978.41
2018-07-23T03:45:34.200Z,978.37
2018-07-23T03:46:44.005Z,978.41
2018-07-23T03:47:53.796Z,978.37
2018-07-23T03:49:03.581Z,978.42
2018-07-23T03:50:13.692Z,978.41
2018-07-23T03:51:23.482Z,978.41
2018-07-23T03:52:32.474Z,978.4
2018-07-23T03:53:42.275Z,978.39
2018-07-23T03:54:52.072Z,978.4
2018-07-23T03:56:01.931Z,978.41
2018-07-23T03:57:12.004Z,978.41
2018-07-23T03:58:22.077Z,978.38
2018-07-23T03:59:32.147Z,978.41
2018-07-23T04:00:41.955Z,978.41
2018-07-23T04:01:52.073Z,978.45
2018-07-23T04:03:02.133Z,978.47
2018-07-23T04:04:11.670Z,978.44
2018-07-23T04:05:21.186Z,978.49
2018-07-23T04:06:30.980Z,978.51
2018-07-23T04:07:41.084Z,978.5
2018-07-23T04:08:51.142Z,978.56
2018-07-23T04:10:00.686Z,978.53
2018-07-23T04:11:10.206Z,978.52
2018-07-23T04:12:20.284Z,978.55
2018-07-23T04:13:30.138Z,978.54
2018-07-23T04:14:40.197Z,978.55
2018-07-23T04:15:49.993Z,978.58
2018-07-23T04:17:00.069Z,978.57
2018-07-23T04:18:09.863Z,978.57
2018-07-23T04:19:19.711Z,978.62
2018-07-23T04:20:29.800Z,978.63
2018-07-23T04:21:39.599Z,978.59
2018-07-23T04:22:49.673Z,978.59
2018-07-23T04:23:59.461Z,978.6
2018-07-23T04:25:09.303Z,978.61
2018-07-23T04:26:19.099Z,978.6
2018-07-23T04:27:29.185Z,978.59
2018-07-23T04:28:39.275Z,978.59
2018-07-23T04:29:49.082Z,978.59
2018-07-23T04:30:58.927Z,978.57
2018-07-23T04:32:08.717Z,978.61
2018-07-23T04:33:18.787Z,978.6
2018-07-23T04:34:28.854Z,978.62
2018-07-23T04:35:38.659Z,978.66
2018-07-23T04:36:48.766Z,978.68
2018-07-23T04:37:58.585Z,978.7
2018-07-23T04:39:08.543Z,978.69
2018-07-23T04:40:18.344Z,978.73
2018-07-23T04:41:27.321Z,978.71
2018-07-23T04:42:37.445Z,978.7
2018-07-23T04:43:46.709Z,978.72
2018-07-23T04:44:56.510Z,978.77
2018-07-23T04:46:06.039Z,978.7
2018-07-23T04:47:16.104Z,978.71
2018-07-23T04:48:26.219Z,978.68
2018-07-23T04:49:36.290Z,978.76
2018-07-23T04:50:46.368Z,978.72
2018-07-23T04:51:56.442Z,978.72
2018-07-23T04:53:06.254Z,978.76
2018-07-23T04:54:15.852Z,978.72
2018-07-23T04:55:25.651Z,978.74
2018-07-23T04:56:35.531Z,978.78
2018-07-23T04:57:45.738Z,978.75
2018-07-23T04:58:55.813Z,978.78
2018-07-23T05:00:05.936Z,978.79
2018-07-23T05:01:15.449Z,978.75
2018-07-23T05:02:25.242Z,978.73
2018-07-23T05:03:35.314Z,978.7
2018-07-23T05:04:44.849Z,978.72
2018-07-23T05:05:54.966Z,978.73
2018-07-23T05:07:04.776Z,978.77
2018-07-23T05:08:14.871Z,978.71
2018-07-23T05:09:24.661Z,978.69
2018-07-23T05:10:34.184Z,978.72
2018-07-23T05:11:44.008Z,978.7
2018-07-23T05:12:53.538Z,978.72
2018-07-23T05:14:03.595Z,978.69
2018-07-23T05:15:13.664Z,978.77
2018-07-23T05:16:23.472Z,978.73
2018-07-23T05:17:33.329Z,978.77
2018-07-23T05:18:43.410Z,978.78
2018-07-23T05:19:53.199Z,978.79
2018-07-23T05:21:02.731Z,978.83
2018-07-23T05:22:12.807Z,978.86
2018-07-23T05:23:22.653Z,978.84
2018-07-23T05:24:32.802Z,978.85
2018-07-23T05:25:42.602Z,978.83
2018-07-23T05:26:52.680Z,978.88
2018-07-23T05:28:02.541Z,978.87
2018-07-23T05:29:12.397Z,978.88
2018-07-23T05:30:21.920Z,978.88
2018-07-23T05:31:31.721Z,978.89
2018-07-23T05:32:41.877Z,978.88
2018-07-23T05:33:51.947Z,978.88
2018-07-23T05:35:02.078Z,978.88
2018-07-23T05:36:11.605Z,978.86
2018-07-23T05:37:21.397Z,978.89
2018-07-23T05:38:31.206Z,978.86
2018-07-23T05:39:41.684Z,978.9
2018-07-23T05:40:51.541Z,978.92
2018-07-23T05:42:01.432Z,978.92
2018-07-23T05:43:11.028Z,978.9
2018-07-23T05:44:21.094Z,978.91
2018-07-23T05:45:31.181Z,978.89
2018-07-23T05:46:41.060Z,978.92
2018-07-23T05:47:50.856Z,978.93
2018-07-23T05:49:00.641Z,978.88
2018-07-23T05:50:10.704Z,978.9
2018-07-23T05:51:20.775Z,978.91
2018-07-23T05:52:30.898Z,978.87
2018-07-23T05:53:40.983Z,978.9
2018-07-23T05:54:51.069Z,978.91
2018-07-23T05:56:00.889Z,978.96
2018-07-23T05:57:10.154Z,978.94
2018-07-23T05:58:20.017Z,978.96
2018-07-23T05:59:30.085Z,978.94
2018-07-23T06:00:39.904Z,978.94
2018-07-23T06:01:49.970Z,978.95
2018-07-23T06:02:59.503Z,978.92
2018-07-23T06:04:09.637Z,978.94
2018-07-23T06:05:19.441Z,978.9
2018-07-23T06:06:29.537Z,978.95
2018-07-23T06:07:39.938Z,978.92
2018-07-23T06:08:49.735Z,978.91
2018-07-23T06:10:04.301Z,978.93
2018-07-23T06:11:14.372Z,978.96
2018-07-23T06:12:24.451Z,978.95
2018-07-23T06:13:34.339Z,978.93
2018-07-23T06:14:44.496Z,978.92
2018-07-23T06:15:54.604Z,978.9
2018-07-23T06:17:04.677Z,978.9
2018-07-23T06:18:14.206Z,978.91
2018-07-23T06:19:24.287Z,978.9
2018-07-23T06:20:34.363Z,978.93
2018-07-23T06:21:44.205Z,978.91
2018-07-23T06:22:54.278Z,978.91
2018-07-23T06:24:04.078Z,978.9
2018-07-23T06:25:13.874Z,978.9
2018-07-23T06:26:23.124Z,978.89
2018-07-23T06:27:33.239Z,978.89
2018-07-23T06:28:43.316Z,978.89
2018-07-23T06:29:52.847Z,978.9
2018-07-23T06:31:02.505Z,978.91
2018-07-23T06:32:12.034Z,978.87
2018-07-23T06:33:22.401Z,978.87
2018-07-23T06:34:32.466Z,978.86
2018-07-23T06:35:42.271Z,978.87
2018-07-23T06:37:06.084Z,978.94
2018-07-23T06:38:16.175Z,978.91
2018-07-23T06:39:26.574Z,978.95
2018-07-23T06:40:36.601Z,978.95
2018-07-23T06:41:46.664Z,978.95
2018-07-23T06:42:56.743Z,978.94
2018-07-23T06:44:06.873Z,978.98
2018-07-23T06:45:16.965Z,978.96
2018-07-23T06:46:27.041Z,979
2018-07-23T06:47:37.269Z,978.99
2018-07-23T06:48:47.354Z,979
2018-07-23T06:49:57.499Z,978.97
2018-07-23T06:51:07.305Z,978.99
2018-07-23T06:52:17.379Z,979.05
2018-07-23T06:53:27.167Z,979.04
2018-07-23T06:54:37.241Z,979.02
2018-07-23T06:55:47.382Z,979.07
2018-07-23T06:56:57.457Z,979.05
2018-07-23T06:58:07.566Z,979.09
2018-07-23T06:59:17.368Z,979.04
2018-07-23T07:00:26.917Z,979.07
2018-07-23T07:01:37.101Z,979.04
2018-07-23T07:02:46.894Z,979.02
2018-07-23T07:03:56.415Z,979.02
2018-07-23T07:05:06.220Z,979.08
2018-07-23T07:06:16.068Z,979.07
2018-07-23T07:07:26.163Z,979.06
2018-07-23T07:08:35.426Z,979.1
2018-07-23T07:09:45.503Z,979.12
2018-07-23T07:10:55.601Z,979.14
2018-07-23T07:12:05.235Z,979.18
2018-07-23T07:13:15.116Z,979.15
2018-07-23T07:14:24.999Z,979.18
2018-07-23T07:15:34.251Z,979.19
2018-07-23T07:16:44.054Z,979.18
2018-07-23T07:17:54.144Z,979.16
2018-07-23T07:19:04.322Z,979.16
2018-07-23T07:20:14.405Z,979.12
2018-07-23T07:21:24.203Z,979.13
2018-07-23T07:22:34.281Z,979.14
2018-07-23T07:23:44.088Z,979.17
2018-07-23T07:24:53.950Z,979.14
2018-07-23T07:26:03.483Z,979.11
2018-07-23T07:27:13.560Z,979.13
2018-07-23T07:28:23.364Z,979.11
2018-07-23T07:29:33.424Z,979.16
2018-07-23T07:30:43.543Z,979.15
2018-07-23T07:31:53.353Z,979.11
2018-07-23T07:33:03.410Z,979.13
2018-07-23T07:34:12.662Z,979.09
2018-07-23T07:35:22.464Z,979.06
2018-07-23T07:36:32.589Z,979.07
2018-07-23T07:37:42.657Z,979.07
2018-07-23T07:38:52.828Z,979.09
2018-07-23T07:40:02.360Z,979.12
2018-07-23T07:41:11.890Z,979.14
2018-07-23T07:42:22.016Z,979.19
2018-07-23T07:43:31.288Z,979.17
2018-07-23T07:44:41.077Z,979.19
2018-07-23T07:45:50.885Z,979.14
2018-07-23T07:47:00.685Z,979.15
2018-07-23T07:48:10.533Z,979.14
2018-07-23T07:49:20.337Z,979.11
2018-07-23T07:50:30.142Z,979.12
2018-07-23T07:51:40.212Z,979.11
2018-07-23T07:52:50.293Z,979.1
2018-07-23T07:54:00.141Z,979.12
2018-07-23T07:55:09.685Z,979.1
2018-07-23T07:56:19.511Z,979.08
2018-07-23T07:57:29.596Z,979.13
2018-07-23T07:58:39.683Z,979.11
2018-07-23T07:59:49.967Z,979.13
2018-07-23T08:00:59.785Z,979.08
2018-07-23T08:02:09.319Z,979.1
2018-07-23T08:03:19.385Z,979.1
2018-07-23T08:04:28.933Z,979.11
2018-07-23T08:05:39.051Z,979.14
2018-07-23T08:06:49.140Z,979.12
2018-07-23T08:07:58.997Z,979.09
2018-07-23T08:09:08.812Z,979.12
2018-07-23T08:10:18.877Z,979.14
2018-07-23T08:11:28.997Z,979.15
2018-07-23T08:12:38.889Z,979.15
2018-07-23T08:13:48.495Z,979.18
2018-07-23T08:14:58.300Z,979.16
2018-07-23T08:16:08.109Z,979.13
2018-07-23T08:17:18.246Z,979.19
2018-07-23T08:18:28.059Z,979.17
2018-07-23T08:19:37.335Z,979.2
2018-07-23T08:20:47.425Z,979.2
2018-07-23T08:21:57.513Z,979.25
2018-07-23T08:23:07.629Z,979.2
2018-07-23T08:24:17.433Z,979.2
2018-07-23T08:25:27.242Z,979.18
2018-07-23T08:26:37.051Z,979.21
2018-07-23T08:27:47.144Z,979.22
2018-07-23T08:28:57.716Z,979.21
2018-07-23T08:30:07.513Z,979.21
2018-07-23T08:31:17.076Z,979.21
2018-07-23T08:32:26.997Z,979.24
2018-07-23T08:33:36.906Z,979.27
2018-07-23T08:34:46.497Z,979.26
2018-07-23T08:35:56.299Z,979.3
2018-07-23T08:37:05.869Z,979.32
2018-07-23T08:38:15.788Z,979.35
2018-07-23T08:39:25.602Z,979.31
2018-07-23T08:40:35.500Z,979.31
2018-07-23T08:41:45.304Z,979.33
2018-07-23T08:42:55.113Z,979.35
2018-07-23T08:44:04.876Z,979.35
2018-07-23T08:45:14.698Z,979.34
2018-07-23T08:46:24.809Z,979.34
2018-07-23T08:47:34.618Z,979.38
2018-07-23T08:48:44.692Z,979.37
2018-07-23T08:49:54.762Z,979.37
2018-07-23T08:51:04.577Z,979.38
2018-07-23T08:52:14.562Z,979.4
2018-07-23T08:53:24.372Z,979.39
2018-07-23T08:54:34.447Z,979.39
2018-07-23T08:55:44.231Z,979.36
2018-07-23T08:56:54.035Z,979.42
2018-07-23T08:58:03.894Z,979.33
2018-07-23T08:59:13.717Z,979.36
2018-07-23T09:00:23.791Z,979.36
2018-07-23T09:01:33.896Z,979.35
2018-07-23T09:02:43.962Z,979.32
2018-07-23T09:03:53.533Z,979.36
2018-07-23T09:05:03.620Z,979.33
2018-07-23T09:06:13.416Z,979.29
2018-07-23T09:07:23.226Z,979.29
2018-07-23T09:08:33.028Z,979.33
2018-07-23T09:09:43.187Z,979.31
2018-07-23T09:10:53.268Z,979.3
2018-07-23T09:12:02.797Z,979.33
2018-07-23T09:13:12.594Z,979.32
2018-07-23T09:14:22.689Z,979.34
2018-07-23T09:15:32.555Z,979.36
2018-07-23T09:16:42.096Z,979.34
2018-07-23T09:17:51.894Z,979.31
2018-07-23T09:19:01.425Z,979.35
2018-07-23T09:20:11.516Z,979.34
2018-07-23T09:21:21.658Z,979.35
2018-07-23T09:22:31.718Z,979.34
2018-07-23T09:23:41.576Z,979.35
2018-07-23T09:24:51.943Z,979.32
2018-07-23T09:26:01.739Z,979.33
2018-07-23T09:27:11.596Z,979.33
2018-07-23T09:28:21.679Z,979.35
2018-07-23T09:29:31.217Z,979.31
2018-07-23T09:30:41.291Z,979.28
2018-07-23T09:31:51.094Z,979.35
2018-07-23T09:33:00.930Z,979.36
2018-07-23T09:34:11.011Z,979.36
2018-07-23T09:35:21.090Z,979.33
2018-07-23T09:36:31.152Z,979.38
2018-07-23T09:37:41.227Z,979.34
2018-07-23T09:38:51.071Z,979.37
2018-07-23T09:40:00.873Z,979.38
2018-07-23T09:41:10.148Z,979.42
2018-07-23T09:42:20.210Z,979.41
2018-07-23T09:43:30.290Z,979.43
2018-07-23T09:44:40.414Z,979.43
2018-07-23T09:45:49.949Z,979.4
2018-07-23T09:47:00.026Z,979.44
2018-07-23T09:48:09.832Z,979.45
2018-07-23T09:49:19.660Z,979.47
2018-07-23T09:50:29.793Z,979.45
2018-07-23T09:51:39.645Z,979.46
2018-07-23T09:52:49.827Z,979.42
2018-07-23T09:53:59.101Z,979.44
2018-07-23T09:55:09.192Z,979.41
2018-07-23T09:56:19.298Z,979.42
2018-07-23T09:57:28.548Z,979.42
2018-07-23T09:58:38.366Z,979.45
2018-07-23T09:59:48.475Z,979.45
2018-07-23T10:00:58.559Z,979.45
2018-07-23T10:02:08.141Z,979.39
2018-07-23T10:03:18.271Z,979.38
2018-07-23T10:04:28.465Z,979.4
2018-07-23T10:05:38.284Z,979.34
2018-07-23T10:06:48.096Z,979.39
2018-07-23T10:07:57.955Z,979.38
2018-07-23T10:09:07.500Z,979.43
2018-07-23T10:10:17.554Z,979.44
2018-07-23T10:11:27.616Z,979.47
2018-07-23T10:12:37.149Z,979.44
2018-07-23T10:13:46.742Z,979.39
2018-07-23T10:14:56.558Z,979.42
2018-07-23T10:16:06.635Z,979.43
2018-07-23T10:17:16.718Z,979.44
2018-07-23T10:18:26.793Z,979.43
2018-07-23T10:19:36.930Z,979.4
2018-07-23T10:20:46.745Z,979.4
2018-07-23T10:21:56.812Z,979.44
2018-07-23T10:23:06.963Z,979.42
2018-07-23T10:24:16.503Z,979.37
2018-07-23T10:25:26.358Z,979.34
2018-07-23T10:26:36.442Z,979.38
2018-07-23T10:27:46.256Z,979.39
2018-07-23T10:28:56.066Z,979.4
2018-07-23T10:30:06.147Z,979.39
2018-07-23T10:31:16.271Z,979.4
2018-07-23T10:32:26.068Z,979.39
2018-07-23T10:33:36.151Z,979.41
2018-07-23T10:34:45.946Z,979.38
2018-07-23T10:35:55.219Z,979.41
2018-07-23T10:37:05.085Z,979.4
2018-07-23T10:38:14.640Z,979.42
2018-07-23T10:39:24.717Z,979.42
2018-07-23T10:40:34.518Z,979.4
2018-07-23T10:41:44.620Z,979.41
2018-07-23T10:42:54.204Z,979.39
2018-07-23T10:44:04.345Z,979.38
2018-07-23T10:45:14.147Z,979.39
2018-07-23T10:46:23.956Z,979.34
2018-07-23T10:47:33.222Z,979.37
2018-07-23T10:48:43.086Z,979.37
2018-07-23T10:49:52.927Z,979.36
2018-07-23T10:51:02.744Z,979.35
2018-07-23T10:52:12.995Z,979.38
2018-07-23T10:53:23.070Z,979.34
2018-07-23T10:54:32.658Z,979.4
2018-07-23T10:55:42.737Z,979.37
2018-07-23T10:56:52.819Z,979.35
2018-07-23T10:58:02.653Z,979.4
2018-07-23T10:59:12.454Z,979.41
2018-07-23T11:00:22.306Z,979.39
2018-07-23T11:01:31.851Z,979.38
2018-07-23T11:02:41.950Z,979.37
2018-07-23T11:03:52.036Z,979.35
2018-07-23T11:05:01.576Z,979.34
2018-07-23T11:06:11.155Z,979.34
2018-07-23T11:07:21.283Z,979.37
2018-07-23T11:08:31.688Z,979.39
2018-07-23T11:09:41.229Z,979.39
2018-07-23T11:10:51.328Z,979.42
2018-07-23T11:12:01.459Z,979.36
2018-07-23T11:13:11.542Z,979.37
2018-07-23T11:14:21.606Z,979.38
2018-07-23T11:15:31.698Z,979.37
2018-07-23T11:16:41.500Z,979.4
2018-07-23T11:17:51.612Z,979.39
2018-07-23T11:19:01.693Z,979.41
2018-07-23T11:20:11.047Z,979.41
2018-07-23T11:21:20.591Z,979.44
2018-07-23T11:22:30.395Z,979.38
2018-07-23T11:23:40.257Z,979.39
2018-07-23T11:24:50.394Z,979.36
2018-07-23T11:26:40.405Z,979.36
2018-07-23T11:27:50.111Z,979.36
2018-07-23T11:29:00.227Z,979.37
2018-07-23T11:30:09.497Z,979.42
2018-07-23T11:31:19.577Z,979.36
2018-07-23T11:32:28.574Z,979.36
2018-07-23T11:33:38.674Z,979.4
2018-07-23T11:34:48.807Z,979.43
2018-07-23T11:35:58.882Z,979.46
2018-07-23T11:37:08.685Z,979.45
2018-07-23T11:38:18.216Z,979.44
2018-07-23T11:39:28.331Z,979.4
2018-07-23T11:40:38.799Z,979.39
2018-07-23T11:41:48.316Z,979.39
2018-07-23T11:42:58.137Z,979.44
2018-07-23T11:44:08.259Z,979.43
2018-07-23T11:45:18.106Z,979.4
2018-07-23T11:46:28.412Z,979.42
2018-07-23T11:47:38.219Z,979.39
2018-07-23T11:48:48.037Z,979.41
2018-07-23T11:49:57.847Z,979.48
2018-07-23T11:51:07.657Z,979.44
2018-07-23T11:52:17.787Z,979.46
2018-07-23T11:53:27.922Z,979.47
2018-07-23T11:54:38.581Z,979.5
2018-07-23T11:55:48.132Z,979.41
2018-07-23T11:56:58.283Z,979.39
2018-07-23T11:58:07.400Z,979.39
2018-07-23T11:59:17.218Z,979.48
2018-07-23T12:00:26.763Z,979.49
2018-07-23T12:01:36.590Z,979.46
2018-07-23T12:02:46.575Z,979.42
2018-07-23T12:03:56.709Z,979.41
2018-07-23T12:05:11.164Z,979.39
2018-07-23T12:06:20.711Z,979.41
2018-07-23T12:07:30.528Z,979.36
2018-07-23T12:08:40.614Z,979.33
2018-07-23T12:09:50.756Z,979.28
2018-07-23T12:11:00.834Z,979.22
2018-07-23T12:12:10.937Z,979.25
2018-07-23T12:13:20.491Z,979.26
2018-07-23T12:14:30.323Z,979.25
2018-07-23T12:15:40.186Z,979.33
2018-07-23T12:16:49.997Z,979.34
2018-07-23T12:18:00.087Z,979.35
2018-07-23T12:19:10.186Z,979.25
2018-07-23T12:20:20.281Z,979.21
2018-07-23T12:21:30.402Z,979.21
2018-07-23T12:22:40.214Z,979.26
2018-07-23T12:23:50.301Z,979.33
2018-07-23T12:25:00.104Z,979.43
2018-07-23T12:26:09.425Z,979.36
2018-07-23T12:27:19.249Z,979.32
2018-07-23T12:28:29.083Z,979.34
2018-07-23T12:29:38.629Z,979.26
2018-07-23T12:30:48.717Z,979.27
2018-07-23T12:31:58.793Z,979.29
2018-07-23T12:33:08.377Z,979.28
2018-07-23T12:34:18.496Z,979.23
2018-07-23T12:35:28.584Z,979.17
2018-07-23T12:36:38.393Z,979.19
2018-07-23T12:37:48.473Z,979.21
2018-07-23T12:38:58.334Z,979.22
2018-07-23T12:40:07.869Z,979.18
2018-07-23T12:41:17.684Z,979.14
2018-07-23T12:42:27.764Z,979.15
2018-07-23T12:43:37.869Z,979.17
2018-07-23T12:44:51.879Z,979.2
2018-07-23T12:46:01.704Z,979.26
2018-07-23T12:47:11.673Z,979.23
2018-07-23T12:48:22.003Z,979.19
2018-07-23T12:49:31.809Z,979.21
2018-07-23T12:50:42.240Z,979.33
2018-07-23T12:51:51.785Z,979.34
2018-07-23T12:53:01.605Z,979.38
2018-07-23T12:54:11.431Z,979.43
2018-07-23T12:55:21.522Z,979.31
2018-07-23T12:56:31.963Z,979.39
2018-07-23T12:57:41.788Z,979.4
2018-07-23T12:58:51.622Z,979.36
2018-07-23T13:00:01.850Z,979.39
2018-07-23T13:01:11.501Z,979.3
2018-07-23T13:02:20.844Z,979.36
2018-07-23T13:03:30.908Z,979.31
2018-07-23T13:04:40.459Z,979.27
2018-07-23T13:05:50.534Z,979.21
2018-07-23T13:07:00.605Z,979.25
2018-07-23T13:08:10.487Z,979.26
2018-07-23T13:09:20.177Z,979.31
2018-07-23T13:10:30.016Z,979.23
2018-07-23T13:11:39.577Z,979.27
2018-07-23T13:12:49.135Z,979.23
2018-07-23T13:13:59.265Z,979.28
2018-07-23T13:15:09.076Z,979.26
2018-07-23T13:16:19.152Z,979.3
2018-07-23T13:17:29.237Z,979.27
2018-07-23T13:18:39.317Z,979.31
2018-07-23T13:19:49.180Z,979.31
2018-07-23T13:20:58.724Z,979.31
2018-07-23T13:22:08.554Z,979.24
2018-07-23T13:23:18.635Z,979.24
2018-07-23T13:24:28.730Z,979.3
2018-07-23T13:25:38.937Z,979.24
2018-07-23T13:26:49.005Z,979.22
2018-07-23T13:27:58.820Z,979.36
2018-07-23T13:29:08.645Z,979.31
2018-07-23T13:30:18.741Z,979.29
2018-07-23T13:31:28.884Z,979.2
2018-07-23T13:32:38.709Z,979.22
2018-07-23T13:33:48.254Z,979.19
2018-07-23T13:34:57.788Z,979.23
2018-07-23T13:36:07.605Z,979.27
2018-07-23T13:37:17.487Z,979.26
2018-07-23T13:38:26.760Z,979.28
2018-07-23T13:39:36.583Z,979.32
2018-07-23T13:40:46.117Z,979.3
2018-07-23T13:41:55.943Z,979.31
2018-07-23T13:43:05.553Z,979.37
2018-07-23T13:44:15.370Z,979.41
2018-07-23T13:45:25.184Z,979.39
2018-07-23T13:46:34.997Z,979.43
2018-07-23T13:47:44.801Z,979.38
2018-07-23T13:48:54.658Z,979.42
2018-07-23T13:50:04.481Z,979.45
2018-07-23T13:51:13.759Z,979.4
2018-07-23T13:52:23.834Z,979.4
2018-07-23T13:53:33.645Z,979.39
2018-07-23T13:54:43.782Z,979.37
2018-07-23T13:55:53.846Z,979.49
2018-07-23T13:57:03.409Z,979.38
2018-07-23T13:58:12.677Z,979.4
2018-07-23T13:59:21.941Z,979.41
2018-07-23T14:00:31.543Z,979.45
2018-07-23T14:01:41.076Z,979.48
2018-07-23T14:02:51.157Z,979.54
2018-07-23T14:04:00.694Z,979.48
2018-07-23T14:05:10.494Z,979.55
2018-07-23T14:06:20.417Z,979.6
2018-07-23T14:07:30.747Z,979.58
2018-07-23T14:08:40.566Z,979.61
2018-07-23T14:09:50.402Z,979.55
2018-07-23T14:11:00.487Z,979.65
2018-07-23T14:12:10.088Z,979.56
2018-07-23T14:13:20.180Z,979.57
2018-07-23T14:14:30.267Z,979.6
2018-07-23T14:15:40.340Z,979.64
2018-07-23T14:16:50.417Z,979.72
2018-07-23T14:18:00.286Z,979.37
2018-07-23T14:19:09.826Z,979.56
2018-07-23T14:20:19.919Z,979.52
2018-07-23T14:21:30.005Z,979.51
2018-07-23T14:22:40.211Z,979.58
2018-07-23T14:23:50.350Z,979.5
2018-07-23T14:25:00.448Z,979.44
2018-07-23T14:26:10.260Z,979.5
2018-07-23T14:27:20.349Z,979.48
2018-07-23T14:28:30.456Z,979.43
2018-07-23T14:29:40.592Z,979.52
2018-07-23T14:30:50.412Z,979.63
2018-07-23T14:31:59.957Z,979.76
2018-07-23T14:33:09.767Z,979.9
2018-07-23T14:34:19.845Z,979.63
2018-07-23T14:35:29.968Z,979.48
2018-07-23T14:36:39.492Z,979.43
2018-07-23T14:37:49.563Z,979.84
2018-07-23T14:38:59.647Z,980.12